Rishon LeZiyyon, Israel
Current Conditions -  °F | °C
As of 9:50 AM on Monday 22 Dec 2014 (Local Time) from LLBG Reporting Station
Clear Clear  
Wind Chill: 61°   Ceiling: Unl
Heat Index: 61°   Visibility: 6mi
Dew Point: 52°   Wind: 9mph
Humidity: 72%   Direction: 170°S
Pressure: 30.09"   Gusts: NA
Location:  31.96°N, 34.8°E
Report Text: LLBG 220650Z 17008KT CAVOK 16/11 Q1019 NOSIG RMK FEW090
Loading
Personal Weather Stations






























Interactive Weather Map New forecast layout! Learn more

10-Day Weather Forecast

Advertisements
Track Severe Weather on mobile